sensor_id;sensor_type;location;lat;lon;timestamp;P1;durP1;ratioP1;P2;durP2;ratioP2
27804;SDS011;15183;51.350;11.102;2023-02-28T00:00:35;8.85;;;5.78;;
27804;SDS011;15183;51.350;11.102;2023-02-28T00:03:03;8.15;;;5.13;;
27804;SDS011;15183;51.350;11.102;2023-02-28T00:05:30;14.95;;;8.45;;
27804;SDS011;15183;51.350;11.102;2023-02-28T00:07:56;11.90;;;6.65;;
27804;SDS011;15183;51.350;11.102;2023-02-28T00:10:24;9.45;;;5.78;;
27804;SDS011;15183;51.350;11.102;2023-02-28T00:12:53;13.52;;;7.47;;
27804;SDS011;15183;51.350;11.102;2023-02-28T00:15:24;6.95;;;4.65;;
27804;SDS011;15183;51.350;11.102;2023-02-28T00:17:51;9.30;;;4.88;;
27804;SDS011;15183;51.350;11.102;2023-02-28T00:20:18;12.63;;;7.43;;
27804;SDS011;15183;51.350;11.102;2023-02-28T00:22:46;11.15;;;6.78;;
27804;SDS011;15183;51.350;11.102;2023-02-28T00:25:16;10.48;;;6.25;;
27804;SDS011;15183;51.350;11.102;2023-02-28T00:27:46;16.38;;;9.23;;
27804;SDS011;15183;51.350;11.102;2023-02-28T00:30:14;15.73;;;8.15;;
27804;SDS011;15183;51.350;11.102;2023-02-28T00:32:47;10.10;;;6.30;;
27804;SDS011;15183;51.350;11.102;2023-02-28T00:35:14;11.15;;;6.70;;
27804;SDS011;15183;51.350;11.102;2023-02-28T00:37:41;11.05;;;7.13;;
27804;SDS011;15183;51.350;11.102;2023-02-28T00:40:08;12.80;;;7.03;;
27804;SDS011;15183;51.350;11.102;2023-02-28T00:42:36;9.82;;;6.15;;
27804;SDS011;15183;51.350;11.102;2023-02-28T00:45:03;6.78;;;4.07;;
27804;SDS011;15183;51.350;11.102;2023-02-28T00:47:31;6.68;;;4.03;;
27804;SDS011;15183;51.350;11.102;2023-02-28T00:49:58;11.15;;;6.78;;
27804;SDS011;15183;51.350;11.102;2023-02-28T00:52:25;13.35;;;8.20;;
27804;SDS011;15183;51.350;11.102;2023-02-28T00:54:52;16.05;;;9.43;;
27804;SDS011;15183;51.350;11.102;2023-02-28T00:57:18;15.80;;;9.38;;
27804;SDS011;15183;51.350;11.102;2023-02-28T00:59:45;10.80;;;6.15;;
27804;SDS011;15183;51.350;11.102;2023-02-28T01:02:11;9.77;;;5.50;;
27804;SDS011;15183;51.350;11.102;2023-02-28T01:04:37;5.60;;;3.83;;
27804;SDS011;15183;51.350;11.102;2023-02-28T01:07:04;6.88;;;4.63;;
27804;SDS011;15183;51.350;11.102;2023-02-28T01:09:30;8.38;;;5.75;;
27804;SDS011;15183;51.350;11.102;2023-02-28T01:11:57;12.70;;;7.15;;
27804;SDS011;15183;51.350;11.102;2023-02-28T01:14:23;8.27;;;5.30;;
27804;SDS011;15183;51.350;11.102;2023-02-28T01:16:49;5.60;;;4.45;;
27804;SDS011;15183;51.350;11.102;2023-02-28T01:19:17;7.80;;;4.10;;
27804;SDS011;15183;51.350;11.102;2023-02-28T01:21:43;7.38;;;4.18;;
27804;SDS011;15183;51.350;11.102;2023-02-28T01:24:10;10.18;;;6.45;;
27804;SDS011;15183;51.350;11.102;2023-02-28T01:26:36;16.50;;;8.88;;
27804;SDS011;15183;51.350;11.102;2023-02-28T01:29:02;10.60;;;6.05;;
27804;SDS011;15183;51.350;11.102;2023-02-28T01:31:29;13.43;;;8.25;;
27804;SDS011;15183;51.350;11.102;2023-02-28T01:33:55;9.35;;;4.68;;
27804;SDS011;15183;51.350;11.102;2023-02-28T01:36:22;12.80;;;6.43;;
27804;SDS011;15183;51.350;11.102;2023-02-28T01:38:50;6.68;;;4.22;;
27804;SDS011;15183;51.350;11.102;2023-02-28T01:41:19;13.77;;;7.05;;
27804;SDS011;15183;51.350;11.102;2023-02-28T01:43:54;11.43;;;6.13;;
27804;SDS011;15183;51.350;11.102;2023-02-28T01:46:25;12.85;;;7.47;;
27804;SDS011;15183;51.350;11.102;2023-02-28T01:48:53;8.55;;;5.55;;
27804;SDS011;15183;51.350;11.102;2023-02-28T01:51:30;6.65;;;4.28;;
27804;SDS011;15183;51.350;11.102;2023-02-28T01:54:12;9.52;;;5.80;;
27804;SDS011;15183;51.350;11.102;2023-02-28T01:57:08;9.20;;;5.25;;
27804;SDS011;15183;51.350;11.102;2023-02-28T01:59:43;6.38;;;3.85;;
27804;SDS011;15183;51.350;11.102;2023-02-28T02:02:25;6.00;;;3.50;;
27804;SDS011;15183;51.350;11.102;2023-02-28T02:04:54;6.47;;;4.22;;
27804;SDS011;15183;51.350;11.102;2023-02-28T02:07:34;4.95;;;3.42;;
27804;SDS011;15183;51.350;11.102;2023-02-28T02:16:14;12.05;;;5.40;;
27804;SDS011;15183;51.350;11.102;2023-02-28T02:19:15;8.00;;;4.93;;
27804;SDS011;15183;51.350;11.102;2023-02-28T02:22:25;8.98;;;4.85;;
27804;SDS011;15183;51.350;11.102;2023-02-28T02:25:32;10.35;;;6.30;;
27804;SDS011;15183;51.350;11.102;2023-02-28T02:31:30;6.50;;;4.13;;
27804;SDS011;15183;51.350;11.102;2023-02-28T02:37:00;8.32;;;4.43;;
27804;SDS011;15183;51.350;11.102;2023-02-28T02:39:36;7.20;;;3.90;;
27804;SDS011;15183;51.350;11.102;2023-02-28T02:47:56;7.22;;;3.67;;
27804;SDS011;15183;51.350;11.102;2023-02-28T02:50:38;7.60;;;4.07;;
27804;SDS011;15183;51.350;11.102;2023-02-28T02:53:12;6.18;;;2.95;;
27804;SDS011;15183;51.350;11.102;2023-02-28T02:55:44;9.00;;;5.03;;
27804;SDS011;15183;51.350;11.102;2023-02-28T02:58:18;6.77;;;3.27;;
27804;SDS011;15183;51.350;11.102;2023-02-28T03:00:52;8.43;;;5.03;;
27804;SDS011;15183;51.350;11.102;2023-02-28T03:03:22;6.85;;;3.50;;
27804;SDS011;15183;51.350;11.102;2023-02-28T03:05:55;5.55;;;3.42;;
27804;SDS011;15183;51.350;11.102;2023-02-28T03:08:24;4.57;;;3.00;;
27804;SDS011;15183;51.350;11.102;2023-02-28T03:10:56;6.72;;;4.13;;
27804;SDS011;15183;51.350;11.102;2023-02-28T03:16:49;3.35;;;2.60;;
27804;SDS011;15183;51.350;11.102;2023-02-28T03:19:52;3.97;;;2.58;;
27804;SDS011;15183;51.350;11.102;2023-02-28T03:31:11;4.35;;;2.35;;
27804;SDS011;15183;51.350;11.102;2023-02-28T03:36:41;4.93;;;2.00;;
27804;SDS011;15183;51.350;11.102;2023-02-28T03:39:16;7.35;;;4.30;;
27804;SDS011;15183;51.350;11.102;2023-02-28T03:41:54;3.60;;;2.45;;
27804;SDS011;15183;51.350;11.102;2023-02-28T03:44:30;7.68;;;4.30;;
27804;SDS011;15183;51.350;11.102;2023-02-28T03:47:20;5.03;;;3.10;;
27804;SDS011;15183;51.350;11.102;2023-02-28T03:50:03;5.18;;;2.40;;
27804;SDS011;15183;51.350;11.102;2023-02-28T03:52:46;3.97;;;2.40;;
27804;SDS011;15183;51.350;11.102;2023-02-28T03:55:19;7.18;;;4.32;;
27804;SDS011;15183;51.350;11.102;2023-02-28T03:57:52;10.15;;;5.10;;
27804;SDS011;15183;51.350;11.102;2023-02-28T04:01:04;7.00;;;4.20;;
27804;SDS011;15183;51.350;11.102;2023-02-28T04:03:37;8.10;;;4.60;;
27804;SDS011;15183;51.350;11.102;2023-02-28T04:06:05;5.55;;;3.90;;
27804;SDS011;15183;51.350;11.102;2023-02-28T04:08:39;7.35;;;4.70;;
27804;SDS011;15183;51.350;11.102;2023-02-28T04:11:12;4.30;;;3.38;;
27804;SDS011;15183;51.350;11.102;2023-02-28T04:13:58;3.75;;;2.80;;
27804;SDS011;15183;51.350;11.102;2023-02-28T04:16:25;7.35;;;4.32;;
27804;SDS011;15183;51.350;11.102;2023-02-28T04:18:51;8.68;;;4.85;;
27804;SDS011;15183;51.350;11.102;2023-02-28T04:21:17;6.60;;;4.07;;
27804;SDS011;15183;51.350;11.102;2023-02-28T04:23:47;12.82;;;6.57;;
27804;SDS011;15183;51.350;11.102;2023-02-28T04:26:14;6.47;;;4.32;;
27804;SDS011;15183;51.350;11.102;2023-02-28T04:28:40;8.27;;;4.60;;
27804;SDS011;15183;51.350;11.102;2023-02-28T04:31:06;4.68;;;3.42;;
27804;SDS011;15183;51.350;11.102;2023-02-28T04:33:33;6.65;;;4.00;;
27804;SDS011;15183;51.350;11.102;2023-02-28T04:36:00;5.43;;;3.78;;
27804;SDS011;15183;51.350;11.102;2023-02-28T04:38:35;5.32;;;3.97;;
27804;SDS011;15183;51.350;11.102;2023-02-28T04:41:03;4.88;;;3.55;;
27804;SDS011;15183;51.350;11.102;2023-02-28T04:43:30;4.25;;;2.95;;
27804;SDS011;15183;51.350;11.102;2023-02-28T04:45:58;4.00;;;2.38;;
27804;SDS011;15183;51.350;11.102;2023-02-28T04:48:29;4.60;;;2.67;;
27804;SDS011;15183;51.350;11.102;2023-02-28T04:51:03;2.88;;;2.08;;
27804;SDS011;15183;51.350;11.102;2023-02-28T04:53:31;6.03;;;3.28;;
27804;SDS011;15183;51.350;11.102;2023-02-28T04:55:58;4.03;;;2.17;;
27804;SDS011;15183;51.350;11.102;2023-02-28T04:58:24;4.85;;;2.72;;
27804;SDS011;15183;51.350;11.102;2023-02-28T05:00:51;4.70;;;2.00;;
27804;SDS011;15183;51.350;11.102;2023-02-28T05:03:19;3.25;;;2.10;;
27804;SDS011;15183;51.350;11.102;2023-02-28T05:05:49;3.80;;;2.15;;
27804;SDS011;15183;51.350;11.102;2023-02-28T05:08:15;4.32;;;2.58;;
27804;SDS011;15183;51.350;11.102;2023-02-28T05:10:41;4.63;;;2.00;;
27804;SDS011;15183;51.350;11.102;2023-02-28T05:13:10;3.88;;;2.22;;
27804;SDS011;15183;51.350;11.102;2023-02-28T05:15:38;3.95;;;2.10;;
27804;SDS011;15183;51.350;11.102;2023-02-28T05:18:04;4.15;;;2.47;;
27804;SDS011;15183;51.350;11.102;2023-02-28T05:20:31;4.45;;;2.75;;
27804;SDS011;15183;51.350;11.102;2023-02-28T05:22:57;2.55;;;2.10;;
27804;SDS011;15183;51.350;11.102;2023-02-28T05:25:25;5.18;;;3.03;;
27804;SDS011;15183;51.350;11.102;2023-02-28T05:27:52;6.78;;;3.50;;
27804;SDS011;15183;51.350;11.102;2023-02-28T05:30:18;8.15;;;4.65;;
27804;SDS011;15183;51.350;11.102;2023-02-28T05:32:49;7.95;;;5.10;;
27804;SDS011;15183;51.350;11.102;2023-02-28T05:35:17;6.78;;;4.18;;
27804;SDS011;15183;51.350;11.102;2023-02-28T05:37:43;12.07;;;5.80;;
27804;SDS011;15183;51.350;11.102;2023-02-28T05:40:10;7.75;;;4.80;;
27804;SDS011;15183;51.350;11.102;2023-02-28T05:42:37;8.60;;;5.03;;
27804;SDS011;15183;51.350;11.102;2023-02-28T05:45:04;7.03;;;3.88;;
27804;SDS011;15183;51.350;11.102;2023-02-28T05:47:32;8.85;;;5.28;;
27804;SDS011;15183;51.350;11.102;2023-02-28T05:49:59;9.07;;;5.00;;
27804;SDS011;15183;51.350;11.102;2023-02-28T05:52:26;9.38;;;4.60;;
27804;SDS011;15183;51.350;11.102;2023-02-28T05:54:53;9.55;;;5.38;;
27804;SDS011;15183;51.350;11.102;2023-02-28T05:57:19;7.75;;;4.38;;
27804;SDS011;15183;51.350;11.102;2023-02-28T05:59:46;5.90;;;3.25;;
27804;SDS011;15183;51.350;11.102;2023-02-28T06:02:13;6.68;;;3.75;;
27804;SDS011;15183;51.350;11.102;2023-02-28T06:04:41;6.53;;;3.88;;
27804;SDS011;15183;51.350;11.102;2023-02-28T06:07:09;8.60;;;5.18;;
27804;SDS011;15183;51.350;11.102;2023-02-28T06:09:36;5.20;;;3.50;;
27804;SDS011;15183;51.350;11.102;2023-02-28T06:12:03;10.60;;;4.20;;
27804;SDS011;15183;51.350;11.102;2023-02-28T06:14:32;7.65;;;4.32;;
27804;SDS011;15183;51.350;11.102;2023-02-28T06:16:59;6.25;;;3.75;;
27804;SDS011;15183;51.350;11.102;2023-02-28T06:19:27;5.57;;;3.03;;
27804;SDS011;15183;51.350;11.102;2023-02-28T06:21:55;8.65;;;4.65;;
27804;SDS011;15183;51.350;11.102;2023-02-28T06:24:23;11.75;;;7.45;;
27804;SDS011;15183;51.350;11.102;2023-02-28T06:26:50;13.93;;;8.38;;
27804;SDS011;15183;51.350;11.102;2023-02-28T06:29:16;17.63;;;8.93;;
27804;SDS011;15183;51.350;11.102;2023-02-28T06:31:44;89.60;;;28.70;;
27804;SDS011;15183;51.350;11.102;2023-02-28T06:34:11;71.60;;;25.25;;
27804;SDS011;15183;51.350;11.102;2023-02-28T06:36:39;24.55;;;10.73;;
27804;SDS011;15183;51.350;11.102;2023-02-28T06:39:07;15.20;;;6.50;;
27804;SDS011;15183;51.350;11.102;2023-02-28T06:41:34;7.78;;;4.28;;
27804;SDS011;15183;51.350;11.102;2023-02-28T06:44:08;8.82;;;4.72;;
27804;SDS011;15183;51.350;11.102;2023-02-28T06:46:40;6.78;;;3.70;;
27804;SDS011;15183;51.350;11.102;2023-02-28T06:49:09;6.57;;;3.80;;
27804;SDS011;15183;51.350;11.102;2023-02-28T06:51:36;5.82;;;3.65;;
27804;SDS011;15183;51.350;11.102;2023-02-28T06:54:05;11.80;;;4.80;;
27804;SDS011;15183;51.350;11.102;2023-02-28T06:56:34;8.88;;;4.32;;
27804;SDS011;15183;51.350;11.102;2023-02-28T06:59:01;7.32;;;3.75;;
27804;SDS011;15183;51.350;11.102;2023-02-28T07:01:28;4.00;;;2.70;;
27804;SDS011;15183;51.350;11.102;2023-02-28T07:03:57;3.78;;;2.50;;
27804;SDS011;15183;51.350;11.102;2023-02-28T07:06:25;4.47;;;2.97;;
27804;SDS011;15183;51.350;11.102;2023-02-28T07:08:53;6.60;;;2.85;;
27804;SDS011;15183;51.350;11.102;2023-02-28T07:11:21;5.32;;;3.33;;
27804;SDS011;15183;51.350;11.102;2023-02-28T07:13:51;7.20;;;3.80;;
27804;SDS011;15183;51.350;11.102;2023-02-28T07:16:22;6.93;;;3.38;;
27804;SDS011;15183;51.350;11.102;2023-02-28T07:18:52;5.03;;;2.83;;
27804;SDS011;15183;51.350;11.102;2023-02-28T07:21:19;4.57;;;2.83;;
27804;SDS011;15183;51.350;11.102;2023-02-28T07:23:45;5.40;;;3.30;;
27804;SDS011;15183;51.350;11.102;2023-02-28T07:26:13;4.75;;;2.83;;
27804;SDS011;15183;51.350;11.102;2023-02-28T07:28:42;10.57;;;5.35;;
27804;SDS011;15183;51.350;11.102;2023-02-28T07:31:11;7.22;;;4.35;;
27804;SDS011;15183;51.350;11.102;2023-02-28T07:33:39;11.35;;;4.07;;
27804;SDS011;15183;51.350;11.102;2023-02-28T07:36:08;17.58;;;4.80;;
27804;SDS011;15183;51.350;11.102;2023-02-28T07:38:41;5.75;;;3.25;;
27804;SDS011;15183;51.350;11.102;2023-02-28T07:41:09;5.63;;;3.38;;
27804;SDS011;15183;51.350;11.102;2023-02-28T07:43:36;6.90;;;4.13;;
27804;SDS011;15183;51.350;11.102;2023-02-28T07:46:06;9.15;;;3.60;;
27804;SDS011;15183;51.350;11.102;2023-02-28T07:48:40;5.57;;;3.08;;
27804;SDS011;15183;51.350;11.102;2023-02-28T07:51:07;13.77;;;8.30;;
27804;SDS011;15183;51.350;11.102;2023-02-28T07:53:34;16.83;;;10.45;;
27804;SDS011;15183;51.350;11.102;2023-02-28T07:56:01;9.27;;;6.45;;
27804;SDS011;15183;51.350;11.102;2023-02-28T07:58:28;6.97;;;4.38;;
27804;SDS011;15183;51.350;11.102;2023-02-28T08:00:56;7.50;;;4.75;;
27804;SDS011;15183;51.350;11.102;2023-02-28T08:03:23;6.88;;;4.72;;
27804;SDS011;15183;51.350;11.102;2023-02-28T08:05:50;5.88;;;3.22;;
27804;SDS011;15183;51.350;11.102;2023-02-28T08:08:18;4.10;;;3.35;;
27804;SDS011;15183;51.350;11.102;2023-02-28T08:10:44;6.25;;;3.63;;
27804;SDS011;15183;51.350;11.102;2023-02-28T08:13:10;5.68;;;3.22;;
27804;SDS011;15183;51.350;11.102;2023-02-28T08:15:37;5.25;;;3.55;;
27804;SDS011;15183;51.350;11.102;2023-02-28T08:18:03;5.53;;;3.63;;
27804;SDS011;15183;51.350;11.102;2023-02-28T08:20:30;7.22;;;3.50;;
27804;SDS011;15183;51.350;11.102;2023-02-28T08:22:56;5.72;;;3.50;;
27804;SDS011;15183;51.350;11.102;2023-02-28T08:25:23;7.80;;;4.10;;
27804;SDS011;15183;51.350;11.102;2023-02-28T08:27:50;5.95;;;3.20;;
27804;SDS011;15183;51.350;11.102;2023-02-28T08:30:17;7.55;;;5.00;;
27804;SDS011;15183;51.350;11.102;2023-02-28T08:32:44;4.90;;;3.13;;
27804;SDS011;15183;51.350;11.102;2023-02-28T08:35:10;8.27;;;4.57;;
27804;SDS011;15183;51.350;11.102;2023-02-28T08:37:38;17.83;;;8.05;;
27804;SDS011;15183;51.350;11.102;2023-02-28T08:40:04;5.88;;;4.10;;
27804;SDS011;15183;51.350;11.102;2023-02-28T08:42:32;6.03;;;3.40;;
27804;SDS011;15183;51.350;11.102;2023-02-28T08:44:58;5.32;;;3.53;;
27804;SDS011;15183;51.350;11.102;2023-02-28T08:47:25;6.95;;;3.97;;
27804;SDS011;15183;51.350;11.102;2023-02-28T08:49:51;6.55;;;3.78;;
27804;SDS011;15183;51.350;11.102;2023-02-28T08:52:18;4.18;;;3.40;;
27804;SDS011;15183;51.350;11.102;2023-02-28T08:54:44;9.18;;;3.40;;
27804;SDS011;15183;51.350;11.102;2023-02-28T08:57:10;6.10;;;3.70;;
27804;SDS011;15183;51.350;11.102;2023-02-28T08:59:37;7.75;;;4.57;;
27804;SDS011;15183;51.350;11.102;2023-02-28T09:02:03;5.63;;;3.38;;
27804;SDS011;15183;51.350;11.102;2023-02-28T09:04:29;5.35;;;3.05;;
27804;SDS011;15183;51.350;11.102;2023-02-28T09:06:56;5.97;;;3.67;;
27804;SDS011;15183;51.350;11.102;2023-02-28T09:09:23;3.63;;;3.22;;
27804;SDS011;15183;51.350;11.102;2023-02-28T09:11:49;9.45;;;5.10;;
27804;SDS011;15183;51.350;11.102;2023-02-28T09:14:15;6.03;;;3.55;;
27804;SDS011;15183;51.350;11.102;2023-02-28T09:16:43;7.97;;;4.00;;
27804;SDS011;15183;51.350;11.102;2023-02-28T09:19:12;4.03;;;3.20;;
27804;SDS011;15183;51.350;11.102;2023-02-28T09:21:39;3.60;;;2.70;;
27804;SDS011;15183;51.350;11.102;2023-02-28T09:24:06;4.22;;;2.60;;
27804;SDS011;15183;51.350;11.102;2023-02-28T09:26:33;3.40;;;2.83;;
27804;SDS011;15183;51.350;11.102;2023-02-28T09:28:59;5.05;;;3.05;;
27804;SDS011;15183;51.350;11.102;2023-02-28T09:31:28;10.85;;;5.32;;
27804;SDS011;15183;51.350;11.102;2023-02-28T09:33:57;6.65;;;3.78;;
27804;SDS011;15183;51.350;11.102;2023-02-28T09:36:25;5.20;;;3.50;;
27804;SDS011;15183;51.350;11.102;2023-02-28T09:38:53;7.00;;;4.03;;
27804;SDS011;15183;51.350;11.102;2023-02-28T09:41:21;5.82;;;2.50;;
27804;SDS011;15183;51.350;11.102;2023-02-28T09:44:02;7.68;;;3.35;;
27804;SDS011;15183;51.350;11.102;2023-02-28T09:46:36;3.90;;;2.60;;
27804;SDS011;15183;51.350;11.102;2023-02-28T09:49:08;6.03;;;3.33;;
27804;SDS011;15183;51.350;11.102;2023-02-28T09:51:46;5.22;;;2.97;;
27804;SDS011;15183;51.350;11.102;2023-02-28T09:54:24;6.18;;;3.47;;
27804;SDS011;15183;51.350;11.102;2023-02-28T09:56:58;3.60;;;3.15;;
27804;SDS011;15183;51.350;11.102;2023-02-28T09:59:41;6.82;;;3.92;;
27804;SDS011;15183;51.350;11.102;2023-02-28T10:02:46;8.23;;;3.95;;
27804;SDS011;15183;51.350;11.102;2023-02-28T10:05:28;8.88;;;5.47;;
27804;SDS011;15183;51.350;11.102;2023-02-28T10:08:13;6.60;;;4.10;;
27804;SDS011;15183;51.350;11.102;2023-02-28T10:10:48;6.68;;;4.05;;
27804;SDS011;15183;51.350;11.102;2023-02-28T10:15:55;7.15;;;3.97;;
27804;SDS011;15183;51.350;11.102;2023-02-28T10:18:46;7.13;;;3.58;;
27804;SDS011;15183;51.350;11.102;2023-02-28T10:21:28;6.20;;;3.00;;
27804;SDS011;15183;51.350;11.102;2023-02-28T10:24:23;5.45;;;2.78;;
27804;SDS011;15183;51.350;11.102;2023-02-28T10:27:05;4.50;;;3.05;;
27804;SDS011;15183;51.350;11.102;2023-02-28T10:29:40;6.15;;;2.92;;
27804;SDS011;15183;51.350;11.102;2023-02-28T10:32:14;4.72;;;3.05;;
27804;SDS011;15183;51.350;11.102;2023-02-28T10:35:31;3.80;;;2.97;;
27804;SDS011;15183;51.350;11.102;2023-02-28T10:37:38;7.97;;;4.43;;
27804;SDS011;15183;51.350;11.102;2023-02-28T10:43:01;6.30;;;3.85;;
27804;SDS011;15183;51.350;11.102;2023-02-28T10:45:39;5.22;;;3.58;;
27804;SDS011;15183;51.350;11.102;2023-02-28T10:49:03;9.57;;;4.60;;
27804;SDS011;15183;51.350;11.102;2023-02-28T10:51:38;10.63;;;3.67;;
27804;SDS011;15183;51.350;11.102;2023-02-28T10:54:14;3.65;;;3.10;;
27804;SDS011;15183;51.350;11.102;2023-02-28T10:59:43;5.70;;;3.15;;
27804;SDS011;15183;51.350;11.102;2023-02-28T11:08:06;5.53;;;3.30;;
27804;SDS011;15183;51.350;11.102;2023-02-28T11:10:43;5.55;;;3.38;;
27804;SDS011;15183;51.350;11.102;2023-02-28T11:13:21;6.00;;;3.90;;
27804;SDS011;15183;51.350;11.102;2023-02-28T11:15:58;7.82;;;3.60;;
27804;SDS011;15183;51.350;11.102;2023-02-28T11:18:42;9.90;;;4.22;;
27804;SDS011;15183;51.350;11.102;2023-02-28T11:21:29;4.35;;;3.50;;
27804;SDS011;15183;51.350;11.102;2023-02-28T11:24:12;4.35;;;3.65;;
27804;SDS011;15183;51.350;11.102;2023-02-28T11:26:54;9.73;;;3.60;;
27804;SDS011;15183;51.350;11.102;2023-02-28T11:29:22;6.53;;;4.07;;
27804;SDS011;15183;51.350;11.102;2023-02-28T11:34:39;7.45;;;4.50;;
27804;SDS011;15183;51.350;11.102;2023-02-28T11:37:17;6.93;;;4.68;;
27804;SDS011;15183;51.350;11.102;2023-02-28T11:39:45;11.88;;;4.75;;
27804;SDS011;15183;51.350;11.102;2023-02-28T11:42:59;7.25;;;4.60;;
27804;SDS011;15183;51.350;11.102;2023-02-28T11:48:04;7.82;;;4.13;;
27804;SDS011;15183;51.350;11.102;2023-02-28T11:53:46;8.75;;;4.85;;
27804;SDS011;15183;51.350;11.102;2023-02-28T11:56:43;7.72;;;4.13;;
27804;SDS011;15183;51.350;11.102;2023-02-28T12:05:37;5.07;;;3.58;;
27804;SDS011;15183;51.350;11.102;2023-02-28T12:08:20;4.80;;;3.05;;
27804;SDS011;15183;51.350;11.102;2023-02-28T12:19:50;5.65;;;3.58;;
27804;SDS011;15183;51.350;11.102;2023-02-28T12:22:58;6.05;;;3.65;;
27804;SDS011;15183;51.350;11.102;2023-02-28T12:26:36;9.15;;;5.38;;
27804;SDS011;15183;51.350;11.102;2023-02-28T12:29:14;8.30;;;4.35;;
27804;SDS011;15183;51.350;11.102;2023-02-28T12:32:13;8.10;;;3.58;;
27804;SDS011;15183;51.350;11.102;2023-02-28T12:35:26;6.78;;;4.28;;
27804;SDS011;15183;51.350;11.102;2023-02-28T12:38:10;5.85;;;4.03;;
27804;SDS011;15183;51.350;11.102;2023-02-28T12:40:53;9.27;;;4.10;;
27804;SDS011;15183;51.350;11.102;2023-02-28T12:43:44;6.13;;;3.97;;
27804;SDS011;15183;51.350;11.102;2023-02-28T12:46:21;6.95;;;3.80;;
27804;SDS011;15183;51.350;11.102;2023-02-28T12:48:58;11.20;;;4.50;;
27804;SDS011;15183;51.350;11.102;2023-02-28T12:51:31;7.13;;;4.35;;
27804;SDS011;15183;51.350;11.102;2023-02-28T12:56:53;6.28;;;3.42;;
27804;SDS011;15183;51.350;11.102;2023-02-28T12:59:33;6.68;;;4.30;;
27804;SDS011;15183;51.350;11.102;2023-02-28T13:02:22;7.07;;;4.03;;
27804;SDS011;15183;51.350;11.102;2023-02-28T13:08:22;7.32;;;4.72;;
27804;SDS011;15183;51.350;11.102;2023-02-28T13:11:29;6.80;;;4.00;;
27804;SDS011;15183;51.350;11.102;2023-02-28T13:14:02;9.10;;;4.65;;
27804;SDS011;15183;51.350;11.102;2023-02-28T13:16:54;7.45;;;4.20;;
27804;SDS011;15183;51.350;11.102;2023-02-28T13:25:01;7.15;;;3.83;;
27804;SDS011;15183;51.350;11.102;2023-02-28T13:27:37;8.30;;;4.30;;
27804;SDS011;15183;51.350;11.102;2023-02-28T13:30:59;6.90;;;4.10;;
27804;SDS011;15183;51.350;11.102;2023-02-28T13:33:21;11.82;;;5.60;;
27804;SDS011;15183;51.350;11.102;2023-02-28T13:38:47;6.78;;;4.43;;
27804;SDS011;15183;51.350;11.102;2023-02-28T13:41:40;8.55;;;5.30;;
27804;SDS011;15183;51.350;11.102;2023-02-28T13:49:25;6.32;;;4.35;;
27804;SDS011;15183;51.350;11.102;2023-02-28T13:57:50;6.47;;;4.07;;
27804;SDS011;15183;51.350;11.102;2023-02-28T14:03:41;7.95;;;4.72;;
27804;SDS011;15183;51.350;11.102;2023-02-28T14:06:28;10.07;;;4.60;;
27804;SDS011;15183;51.350;11.102;2023-02-28T14:09:00;5.28;;;4.22;;
27804;SDS011;15183;51.350;11.102;2023-02-28T14:11:44;7.07;;;4.25;;
27804;SDS011;15183;51.350;11.102;2023-02-28T14:17:01;8.40;;;4.68;;
27804;SDS011;15183;51.350;11.102;2023-02-28T14:19:31;6.07;;;4.13;;
27804;SDS011;15183;51.350;11.102;2023-02-28T14:30:56;8.98;;;4.65;;
27804;SDS011;15183;51.350;11.102;2023-02-28T14:34:17;7.80;;;4.55;;
27804;SDS011;15183;51.350;11.102;2023-02-28T14:36:44;7.88;;;4.90;;
27804;SDS011;15183;51.350;11.102;2023-02-28T14:39:15;6.55;;;4.22;;
27804;SDS011;15183;51.350;11.102;2023-02-28T14:41:45;8.80;;;5.18;;
27804;SDS011;15183;51.350;11.102;2023-02-28T14:44:19;8.32;;;4.85;;
27804;SDS011;15183;51.350;11.102;2023-02-28T14:46:55;9.20;;;5.85;;
27804;SDS011;15183;51.350;11.102;2023-02-28T14:49:41;6.82;;;4.78;;
27804;SDS011;15183;51.350;11.102;2023-02-28T14:52:15;11.15;;;5.72;;
27804;SDS011;15183;51.350;11.102;2023-02-28T14:54:53;8.52;;;5.72;;
27804;SDS011;15183;51.350;11.102;2023-02-28T14:57:25;9.70;;;5.93;;
27804;SDS011;15183;51.350;11.102;2023-02-28T14:59:58;11.45;;;5.25;;
27804;SDS011;15183;51.350;11.102;2023-02-28T15:02:33;8.02;;;5.00;;
27804;SDS011;15183;51.350;11.102;2023-02-28T15:05:02;10.30;;;5.60;;
27804;SDS011;15183;51.350;11.102;2023-02-28T15:07:38;8.55;;;5.55;;
27804;SDS011;15183;51.350;11.102;2023-02-28T15:10:18;8.15;;;5.07;;
27804;SDS011;15183;51.350;11.102;2023-02-28T15:13:07;8.80;;;5.25;;
27804;SDS011;15183;51.350;11.102;2023-02-28T15:18:43;7.85;;;4.85;;
27804;SDS011;15183;51.350;11.102;2023-02-28T15:21:18;9.90;;;6.03;;
27804;SDS011;15183;51.350;11.102;2023-02-28T15:24:00;9.45;;;4.55;;
27804;SDS011;15183;51.350;11.102;2023-02-28T15:26:32;10.68;;;5.07;;
27804;SDS011;15183;51.350;11.102;2023-02-28T15:29:10;8.05;;;4.75;;
27804;SDS011;15183;51.350;11.102;2023-02-28T15:31:50;9.60;;;4.78;;
27804;SDS011;15183;51.350;11.102;2023-02-28T15:34:33;10.77;;;5.38;;
27804;SDS011;15183;51.350;11.102;2023-02-28T15:40:11;9.63;;;5.68;;
27804;SDS011;15183;51.350;11.102;2023-02-28T15:42:59;8.63;;;4.88;;
27804;SDS011;15183;51.350;11.102;2023-02-28T15:45:32;8.70;;;5.80;;
27804;SDS011;15183;51.350;11.102;2023-02-28T15:48:05;9.75;;;5.90;;
27804;SDS011;15183;51.350;11.102;2023-02-28T15:50:50;8.23;;;5.38;;
27804;SDS011;15183;51.350;11.102;2023-02-28T15:53:36;7.25;;;4.88;;
27804;SDS011;15183;51.350;11.102;2023-02-28T15:56:43;7.85;;;5.20;;
27804;SDS011;15183;51.350;11.102;2023-02-28T15:59:25;7.38;;;4.82;;
27804;SDS011;15183;51.350;11.102;2023-02-28T16:04:36;8.38;;;5.20;;
27804;SDS011;15183;51.350;11.102;2023-02-28T16:07:04;9.15;;;5.53;;
27804;SDS011;15183;51.350;11.102;2023-02-28T16:09:31;9.00;;;5.15;;
27804;SDS011;15183;51.350;11.102;2023-02-28T16:12:01;8.63;;;5.55;;
27804;SDS011;15183;51.350;11.102;2023-02-28T16:14:29;8.02;;;5.53;;
27804;SDS011;15183;51.350;11.102;2023-02-28T16:16:57;9.32;;;4.97;;
27804;SDS011;15183;51.350;11.102;2023-02-28T16:19:31;9.77;;;5.13;;
27804;SDS011;15183;51.350;11.102;2023-02-28T16:21:58;7.28;;;5.32;;
27804;SDS011;15183;51.350;11.102;2023-02-28T16:24:24;10.02;;;5.90;;
27804;SDS011;15183;51.350;11.102;2023-02-28T16:26:51;7.20;;;5.03;;
27804;SDS011;15183;51.350;11.102;2023-02-28T16:29:28;7.72;;;5.68;;
27804;SDS011;15183;51.350;11.102;2023-02-28T16:32:01;8.95;;;5.57;;
27804;SDS011;15183;51.350;11.102;2023-02-28T16:34:31;6.80;;;4.97;;
27804;SDS011;15183;51.350;11.102;2023-02-28T16:36:57;9.38;;;5.22;;
27804;SDS011;15183;51.350;11.102;2023-02-28T16:39:24;11.70;;;6.78;;
27804;SDS011;15183;51.350;11.102;2023-02-28T16:41:51;11.68;;;5.18;;
27804;SDS011;15183;51.350;11.102;2023-02-28T16:44:27;9.75;;;5.45;;
27804;SDS011;15183;51.350;11.102;2023-02-28T16:47:00;8.73;;;5.47;;
27804;SDS011;15183;51.350;11.102;2023-02-28T16:49:27;11.32;;;6.38;;
27804;SDS011;15183;51.350;11.102;2023-02-28T16:51:54;13.23;;;7.55;;
27804;SDS011;15183;51.350;11.102;2023-02-28T16:54:20;16.25;;;9.48;;
27804;SDS011;15183;51.350;11.102;2023-02-28T16:56:47;13.98;;;8.07;;
27804;SDS011;15183;51.350;11.102;2023-02-28T16:59:17;22.60;;;10.65;;
27804;SDS011;15183;51.350;11.102;2023-02-28T17:01:49;17.63;;;9.43;;
27804;SDS011;15183;51.350;11.102;2023-02-28T17:04:17;18.95;;;9.77;;
27804;SDS011;15183;51.350;11.102;2023-02-28T17:06:43;14.32;;;8.35;;